Main page
METAR-TAF:

METAR-TAF

Airports :

Abdelhafid Boussouf Bou Chekif Airport

Tiaret, Algeria

latitude: 35-15N, longitude: 001-26E, elevation: 1127 m

Current weather observation

The report was made 44 minutes ago, at 20:00 UTC
Wind 5 kt from the West
Temperature 3°C
Humidity 81%
Pressure 1025 hPa
Visibility 10 km or more
Scattered clouds at a height of 2600 ft

METAR: DAOB 212000Z 28005KT 9999 SCT026 03/00 Q1025

Time: 21:44 (20:44 UTC)

Forecast

The report was made 3 hours and 44 minutes ago, at 17:00 UTC
Forecast valid from 21 at 18 UTC to 22 at 18 UTC
Wind 8 kt from the Northwest
Visibility 10 km or more
Few clouds at a height of 2600 ft
Probability 30% :
Temporary
from 21 at 21 UTC to 22 at 04 UTC
Visibility: 3000 m
Broken clouds at a height of 1500 ft
mist

TAF: DAOB 211700Z 2118/2218 32008KT 9999 FEW026 PROB30 TEMPO 2121/2204 3000 BR BKN015

Weather observations and forecasts of more than 4000 airports (METAR and TAF reports).

The available stations are represented by yellow and red dots on the map.

Hover mouse over dot to see the name of the station.

Then click to see weather observations and forecasts.

To change the map : click on the green buttons with a black cross to zoom in, on the green button with a dash to zoom out, or on the green arrows for adjacent maps.


METAR-TAF: